Flight Track Log - Related Links

Times and Time Zones

All times are in EDT time to prevent confusion due to time zone crossing. See the ELJ112 flight status page for this flight to view local times or setup timezone preferences in your user account.

Time Position Orientation Groundspeed Altitude Reporting Facility
EDT Latitude Longitude Course Direction KTS MPH feet Rate Location/Type
Mon 09:55:09 AM 25.8983 -80.2750 92° East 168 193 400  Level Miami Center
Mon 09:55:45 AM 25.8972 -80.2403 92° East 211 243 1,600 1,856 Climbing Miami Center
Mon 09:56:46 AM 25.9400 -80.1931 45° Northeast 279 321 3,400 2,361 Climbing Miami Center
Mon 09:57:47 AM 25.9803 -80.2611 303° West 261 300 6,400 2,854 Climbing Miami Center
Mon 09:58:29 AM 26.0064 -80.2989 308° West 294 338 8,300 2,706 Climbing Miami Center
Mon 09:59:29 AM 26.0381 -80.3761 295° West 288 331 11,000 1,950 Climbing Miami Center
Mon 10:00:29 AM 26.0672 -80.4647 290° West 288 331 12,200 1,250 Climbing Miami Center
Mon 10:01:29 AM 26.1025 -80.5608 292° West 316 364 13,500 1,400 Climbing Miami Center
Mon 10:02:29 AM 26.1417 -80.6614 293° West 339 390 15,000 1,550 Climbing Miami Center
Mon 10:03:29 AM 26.2022 -80.7444 309° West 344 396 16,600 1,850 Climbing Miami Center
Mon 10:04:29 AM 26.2881 -80.8050 328° Northwest 333 383 18,700 1,900 Climbing Miami Center
Mon 10:05:29 AM 26.3619 -80.8539 329° Northwest 338 389 20,400 1,750 Climbing Miami Center
Mon 10:06:29 AM 26.4522 -80.9150 329° Northwest 338 389 22,200 1,650 Climbing Miami Center
Mon 10:07:29 AM 26.5281 -80.9664 329° Northwest 343 395 23,700 1,617 Climbing Miami Center
Mon 10:12:29 AM 26.9458 -81.2467 330° Northwest 354 407 31,900 1,633 Climbing Miami Center
Mon 10:13:00 AM 27.0306 -81.2639 318° Northwest  Level FlightAware Approximate
Mon 10:13:29 AM 27.0256 -81.3031 328° Northwest 354 407 33,500  Level Miami Center
Mon 10:14:29 AM 27.1094 -81.3531 332° Northwest 354 407 35,200 1,700 Climbing Miami Center
Mon 10:15:29 AM 27.2019 -81.4056 333° Northwest 342 394 36,900 1,400 Climbing Miami Center
Mon 10:16:29 AM 27.2736 -81.4481 332° Northwest 336 387 38,000 550 Climbing Miami Center
Mon 10:17:29 AM 27.3742 -81.5036 334° Northwest 347 399 38,000  Level Miami Center
Mon 10:18:29 AM 27.4664 -81.5564 333° Northwest 365 420 38,000 350 Level Miami Center
Mon 10:19:29 AM 27.5586 -81.6072 334° Northwest 365 420 38,700 750 Climbing Miami Center
Mon 10:20:00 AM 27.6397 -81.6819 330° Northwest  Level FlightAware Approximate
Mon 10:20:29 AM 27.6467 -81.6553 334° Northwest 365 420 39,500  Level Miami Center
Mon 10:21:00 AM 27.7277 -81.7404 330° Northwest  Level FlightAware Approximate
Mon 10:21:29 AM 27.7267 -81.7008 333° Northwest 360 414 40,000  Level Miami Center
Mon 10:22:00 AM 27.8157 -81.7989 330° Northwest  Level FlightAware Approximate
Mon 10:22:29 AM 27.8167 -81.7539 332° Northwest 360 414 40,000  Level Miami Center
Mon 10:23:29 AM 27.9086 -81.8047 334° Northwest 360 414 40,000  Level Miami Center
Mon 10:25:09 AM 28.0689 -81.8906 335° Northwest 357 411 40,000  Level Jacksonville Center
Mon 10:26:09 AM 28.1672 -81.9225 344° North 357 411 40,000  Level Jacksonville Center
Mon 10:27:09 AM 28.2717 -81.9450 349° North 368 423 40,000  Level Jacksonville Center
Mon 10:28:09 AM 28.3719 -81.9678 349° North 368 423 40,000  Level Jacksonville Center
Mon 10:29:09 AM 28.4639 -81.9931 346° North 375 432 40,000  Level Jacksonville Center
Mon 10:30:09 AM 28.5664 -82.0156 349° North 375 432 40,000  Level Jacksonville Center
Mon 10:31:09 AM 28.6689 -82.0383 349° North 375 432 40,000  Level Jacksonville Center
Mon 10:32:09 AM 28.7836 -82.0611 350° North 375 432 40,000  Level Jacksonville Center
Mon 10:33:09 AM 28.8883 -82.0839 349° North 375 432 40,000  Level Jacksonville Center
Mon 10:34:09 AM 28.9864 -82.1117 346° North 375 432 40,000  Level Jacksonville Center
Mon 10:35:09 AM 29.0889 -82.1394 347° North 370 426 40,000  Level Jacksonville Center
Mon 10:36:09 AM 29.1936 -82.1647 348° North 376 433 40,000  Level Jacksonville Center
Mon 10:37:09 AM 29.2958 -82.1853 350° North 376 433 40,000  Level Jacksonville Center
Mon 10:38:09 AM 29.4003 -82.2083 349° North 376 433 40,000 100 Level Jacksonville Center
Mon 10:39:09 AM 29.5050 -82.2339 348° North 376 433 40,200 350 Climbing Jacksonville Center
Mon 10:40:09 AM 29.6072 -82.2572 349° North 371 427 40,700 400 Climbing Jacksonville Center
Mon 10:41:09 AM 29.7097 -82.2781 350° North 371 427 41,000 150 Climbing Jacksonville Center
Mon 10:42:09 AM 29.8122 -82.3036 348° North 371 427 41,000  Level Jacksonville Center
Mon 10:43:09 AM 29.8917 -82.3489 334° Northwest 366 421 41,000  Level Jacksonville Center
Mon 10:44:09 AM 29.9794 -82.4083 330° Northwest 361 415 41,000  Level Jacksonville Center
Mon 10:45:09 AM 30.0694 -82.4703 329° Northwest 366 421 41,000  Level Jacksonville Center
Mon 10:46:09 AM 30.1617 -82.5178 336° Northwest 366 421 41,000  Level Jacksonville Center
Mon 10:47:09 AM 30.2681 -82.5414 349° North 371 427 41,000  Level Jacksonville Center
Mon 10:48:09 AM 30.3767 -82.5650 349° North 377 434 41,000  Level Jacksonville Center
Mon 10:49:09 AM 30.4792 -82.5864 350° North 382 440 41,000  Level Jacksonville Center
Mon 10:50:09 AM 30.5878 -82.6128 348° North 382 440 41,000  Level Jacksonville Center
Mon 10:51:09 AM 30.6964 -82.6364 349° North 388 447 41,000  Level Jacksonville Center
Mon 10:52:09 AM 30.8028 -82.6603 349° North 393 452 41,000  Level Jacksonville Center
Mon 10:53:09 AM 30.9072 -82.6844 349° North 393 452 41,000  Level Jacksonville Center
Mon 10:54:09 AM 31.0139 -82.7058 350° North 393 452 41,000  Level Jacksonville Center
Mon 10:55:09 AM 31.1328 -82.7250 352° North 393 452 41,000  Level Jacksonville Center
Mon 10:56:09 AM 31.2289 -82.7492 348° North 393 452 41,000  Level Jacksonville Center
Mon 10:57:09 AM 31.3314 -82.7758 347° North 388 447 41,000  Level Jacksonville Center
Mon 10:59:08 AM 31.5611 -82.8253 350° North 390 449 41,000  Level Atlanta Center
Mon 11:00:08 AM 31.6678 -82.8481 350° North 390 449 41,000  Level Atlanta Center
Mon 11:01:08 AM 31.7725 -82.8736 348° North 390 449 41,000  Level Atlanta Center
Mon 11:02:08 AM 31.8769 -82.8967 349° North 390 449 41,000  Level Atlanta Center
Mon 11:03:08 AM 31.9753 -82.9200 349° North 390 449 41,000  Level Atlanta Center
Mon 11:04:08 AM 32.0819 -82.9456 349° North 390 449 41,000  Level Atlanta Center
Mon 11:05:08 AM 32.1886 -82.9714 348° North 390 449 41,000  Level Atlanta Center
Mon 11:06:08 AM 32.2933 -82.9969 348° North 390 449 41,000  Level Atlanta Center
Mon 11:07:08 AM 32.4019 -83.0203 350° North 395 455 41,000  Level Atlanta Center
Mon 11:08:08 AM 32.5108 -83.0486 348° North 395 455 41,000  Level Atlanta Center
Mon 11:09:08 AM 32.6153 -83.0747 348° North 395 455 41,000  Level Atlanta Center
Mon 11:10:08 AM 32.7242 -83.1031 348° North 390 449 41,000  Level Atlanta Center
Mon 11:11:08 AM 32.8286 -83.1267 349° North 390 449 41,000  Level Atlanta Center
Mon 11:12:08 AM 32.9372 -83.1528 349° North 390 449 41,000  Level Atlanta Center
Mon 11:13:08 AM 33.0461 -83.1789 349° North 390 449 41,000  Level Atlanta Center
Mon 11:14:08 AM 33.1569 -83.2050 349° North 396 456 41,000  Level Atlanta Center
Mon 11:15:08 AM 33.2656 -83.2314 349° North 396 456 41,000  Level Atlanta Center
Mon 11:16:08 AM 33.3764 -83.2578 349° North 396 456 41,000  Level Atlanta Center
Mon 11:17:08 AM 33.4850 -83.2842 349° North 396 456 41,000  Level Atlanta Center
Mon 11:18:08 AM 33.5939 -83.3106 349° North 396 456 41,000  Level Atlanta Center
Mon 11:19:08 AM 33.7131 -83.3394 349° North 396 456 41,000  Level Atlanta Center
Mon 11:20:08 AM 33.8236 -83.3661 349° North 396 456 41,000  Level Atlanta Center
Mon 11:21:08 AM 33.9325 -83.3928 349° North 401 461 41,000  Level Atlanta Center
Mon 11:22:08 AM 34.0431 -83.4219 348° North 401 461 41,000  Level Atlanta Center
Mon 11:23:08 AM 34.1517 -83.4464 349° North 401 461 41,000  Level Atlanta Center
Mon 11:24:08 AM 34.2625 -83.4758 348° North 401 461 41,000  Level Atlanta Center
Mon 11:25:08 AM 34.3753 -83.5028 349° North 407 468 41,000  Level Atlanta Center
Mon 11:26:08 AM 34.4883 -83.5297 349° North 402 463 41,000  Level Atlanta Center
Mon 11:27:08 AM 34.5969 -83.5594 347° North 408 470 41,000  Level Atlanta Center
Mon 11:28:08 AM 34.7097 -83.5864 349° North 408 470 41,000  Level Atlanta Center
Mon 11:29:08 AM 34.8203 -83.6136 349° North 413 475 41,000  Level Atlanta Center
Mon 11:30:08 AM 34.9186 -83.6386 348° North 404 465 41,000  Level Atlanta Center
Mon 11:31:08 AM 35.0272 -83.6708 346° North 404 465 41,000  Level Atlanta Center
Mon 11:32:08 AM 35.1358 -83.6983 348° North 399 459 41,000  Level Atlanta Center
Mon 11:33:08 AM 35.2483 -83.7258 349° North 399 459 41,000  Level Atlanta Center
Mon 11:34:08 AM 35.3592 -83.7561 347° North 399 459 41,000  Level Atlanta Center
Mon 11:35:08 AM 35.4717 -83.7658 356° North 399 459 41,000  Level Atlanta Center
Mon 11:36:08 AM 35.5928 -83.7681 359° North 411 473 41,000  Level Atlanta Center
Mon 11:37:08 AM 35.7097 -83.7728 358° North 417 480 41,000  Level Atlanta Center
Mon 11:38:08 AM 35.8286 -83.7725 360° North 423 487 41,000  Level Atlanta Center
Mon 11:39:08 AM 35.9453 -83.7772 358° North 423 487 41,000  Level Atlanta Center
Mon 11:40:08 AM 36.0642 -83.7794 359° North 423 487 41,000  Level Atlanta Center
Mon 11:41:26 AM 36.2242 -83.7792 360° North 424 488 41,000 -771 Level Indianapolis Center
Mon 11:42:28 AM 36.3431 -83.7806 359° North 424 488 39,200 -2,000 Descending Indianapolis Center
Mon 11:43:29 AM 36.4678 -83.7828 359° North 440 506 36,900 -1,574 Descending Indianapolis Center
Mon 11:44:30 AM 36.6136 -83.7711 North 463 533 36,000 -439 Descending Indianapolis Center
Mon 11:45:32 AM 36.7461 -83.7469 North 472 543 36,000 -339 Level Indianapolis Center
Mon 11:46:34 AM 36.8789 -83.7253 North 475 547 35,300 -829 Descending Indianapolis Center
Mon 11:47:35 AM 37.0072 -83.7017 North 468 539 34,300 -976 Descending Indianapolis Center
Mon 11:48:37 AM 37.1400 -83.6783 North 472 543 33,300 -1,610 Descending Indianapolis Center
Mon 11:49:38 AM 37.2750 -83.6533 North 482 555 31,000 -2,390 Descending Indianapolis Center
Mon 11:50:40 AM 37.4025 -83.6300 North 469 540 28,400 -2,439 Descending Indianapolis Center
Mon 11:51:41 AM 37.5300 -83.6072 North 462 532 26,000 -2,146 Descending Indianapolis Center
Mon 11:52:43 AM 37.6553 -83.6086 359° North 454 522 24,000 -1,268 Descending Indianapolis Center
Mon 11:53:44 AM 37.7772 -83.6853 334° Northwest 422 486 23,400 -780 Descending Indianapolis Center
Mon 11:54:46 AM 37.8761 -83.7561 331° Northwest 412 474 22,400 -1,073 Descending Indianapolis Center
Mon 11:55:47 AM 37.9753 -83.8256 331° Northwest 410 472 21,200 -1,707 Descending Indianapolis Center
Mon 11:56:49 AM 38.0694 -83.8922 331° Northwest 390 449 18,900 -2,226 Descending Indianapolis Center
Mon 11:57:51 AM 38.1592 -83.9572 330° Northwest 370 426 16,600 -2,049 Descending Indianapolis Center
Mon 11:58:52 AM 38.2461 -84.0197 331° Northwest 362 417 14,700 -1,805 Descending Indianapolis Center
Mon 11:59:54 AM 38.3308 -84.0797 331° Northwest 351 404 12,900 -1,756 Descending Indianapolis Center
Mon 12:00:55 PM 38.4247 -84.1486 330° Northwest 339 390 11,100 -878 Descending Indianapolis Center
Mon 12:01:57 PM 38.5022 -84.2122 327° Northwest 332 382 11,100  Level Indianapolis Center
Mon 12:02:58 PM 38.5781 -84.2761 327° Northwest 331 381 11,100 -49 Level Indianapolis Center
Mon 12:03:59 PM 38.6503 -84.3358 327° Northwest 326 375 11,000 -49 Descending Indianapolis Center
Mon 12:05:01 PM 38.7244 -84.3964 328° Northwest 319 367 11,000 -293 Level Indianapolis Center
Mon 12:06:02 PM 38.7975 -84.4578 327° Northwest 316 364 10,400 -976 Descending Indianapolis Center
Mon 12:07:04 PM 38.8603 -84.5106 327° Northwest 280 322 9,000 -683 Descending Indianapolis Center
Mon 12:08:05 PM 38.9372 -84.5331 347° North 286 329 9,000 -537 Level Indianapolis Center
Mon 12:09:07 PM 39.0289 -84.5414 356° North 280 322 7,900 -1,415 Descending Indianapolis Center
Mon 12:10:08 PM 39.1039 -84.5514 354° North 275 316 6,100 -1,805 Descending Indianapolis Center
Mon 12:11:10 PM 39.1731 -84.5617 353° North 261 300 4,200 -1,122 Descending Indianapolis Center
Mon 12:12:11 PM 39.2408 -84.5728 353° North 259 298 3,800 -375 Descending Indianapolis Center
Mon 12:14:22 PM 39.2167 -84.6500 248° West 172 198 3,000 -250 Descending Cincinnati TRACON
Mon 12:15:23 PM 39.1667 -84.6500 180° South 161 185 3,000 -378 Level Cincinnati TRACON
Mon 12:16:29 PM 39.1167 -84.6500 180° South 132 152 2,200 -667 Descending Cincinnati TRACON
Mon 12:17:29 PM 39.1000 -84.6500 180° South 92 106 1,600 -579 Descending Cincinnati TRACON
Mon 12:18:23 PM 39.0667 -84.6500 180° South 102 117 1,100 -556 Descending Cincinnati TRACON
Mon 12:20:00 PM 39.0488 -84.6678 180° South  Level Estimated

Login

Don't have an account? Register now (free) for customized features, flight alerts, and more!